Carroll, Iowa
Current Conditions -  °F | °C
As of 5:55 AM on Monday 22 Dec 2014 (Local Time) from KCIN Reporting Station
Haze Haze  
Wind Chill: -1°   Ceiling: 400
Heat Index:   Visibility: 3mi
Dew Point:   Wind: 16mph
Humidity: 100%   Direction: 160°SSE
Pressure: 29.58"   Gusts: NA
Location:  42.07°N, 94.87°W
Report Text: KCIN 221155Z AUTO 16014KT 3SM BR OVC004 04/04 A2958 RMK AO2
Loading
Personal Weather Stations






























Interactive Weather Map New forecast layout! Learn more

10-Day Weather Forecast

Advertisements
Track Severe Weather on mobile